FYWB

Walvis Bay Airport

Walvis Bay, Namibia
METAR FYWB 180800Z AUTO 36005KT //// // ////// 17/14 Q1014
Observed Flight Rules
Dec-18 @ 08:00 UTC (an hour ago)
Wind
360° at 5 knots
Temperatures Readings
Current 17°C / 63°F
Dewpoint 14°C / 57°F
Humidity 83%
Altimeter 29.94" Hg
Pressure 1014 hPa
Elevation 46
METAR FYWB 180800Z AUTO 36005KT //// // ////// 17/14 Q1014
Observed Flight Rules
Dec-18 @ 08:00 UTC
(an hour ago)
Wind
360° at 5 knots
Temperature Dewpoint
17°C / 63°F 14°C / 57°F
Humidity Altimeter Pressure
83% 29.94" Hg 1014 hPa